Time;durP1;ratioP1;P1;durP2;ratioP2;P2;SDS_P1;SDS_P2;PMS_P1;PMS_P2;Temp;Humidity;BMP_temperature;BMP_pressure;BME280_temperature;BME280_humidity;BME280_pressure;Samples;Min_cycle;Max_cycle;Signal;HPM_P1;HPM_P2
2023/04/01 00:00:57;;;;;;;1.88;1.00;;;22.00;43.70;;;;;;4989004;28;20103;-57
2023/04/01 00:03:24;;;;;;;2.13;1.15;;;22.00;43.70;;;;;;4987830;28;20026;-54
2023/04/01 00:05:50;;;;;;;1.83;1.00;;;22.00;43.80;;;;;;4988450;28;20176;-55
2023/04/01 00:08:16;;;;;;;1.50;1.00;;;22.00;43.80;;;;;;4984984;28;20062;-56
2023/04/01 00:10:42;;;;;;;1.75;1.02;;;22.00;43.80;;;;;;4987139;28;20037;-54
2023/04/01 00:13:08;;;;;;;1.95;1.02;;;21.90;43.70;;;;;;4988063;28;20042;-57
2023/04/01 00:15:34;;;;;;;1.50;0.82;;;21.90;43.80;;;;;;4987057;28;21469;-57
2023/04/01 00:18:00;;;;;;;1.55;0.80;;;21.90;43.80;;;;;;4982013;28;20023;-54
2023/04/01 00:20:27;;;;;;;1.83;0.88;;;21.90;43.80;;;;;;4983883;28;20053;-54
2023/04/01 00:22:52;;;;;;;1.73;0.70;;;21.90;43.80;;;;;;4988311;28;20085;-56
2023/04/01 00:25:18;;;;;;;1.70;0.90;;;21.90;43.90;;;;;;4988382;28;20084;-53
2023/04/01 00:27:44;;;;;;;1.92;0.80;;;21.90;43.90;;;;;;4987067;28;20030;-56
2023/04/01 00:30:11;;;;;;;2.08;0.82;;;21.90;43.90;;;;;;4988037;28;20026;-52
2023/04/01 00:32:36;;;;;;;1.55;0.77;;;21.90;44.00;;;;;;4987090;28;20022;-56
2023/04/01 00:35:03;;;;;;;1.55;0.77;;;21.90;44.00;;;;;;4986891;28;20575;-54
2023/04/01 00:37:30;;;;;;;1.25;0.70;;;21.80;44.00;;;;;;4987116;28;20414;-55
2023/04/01 00:39:56;;;;;;;2.40;0.70;;;21.80;44.00;;;;;;4986593;28;20070;-54
2023/04/01 00:42:23;;;;;;;1.67;0.70;;;21.80;44.00;;;;;;4985834;28;20113;-54
2023/04/01 00:44:52;;;;;;;0.80;0.60;;;21.90;44.00;;;;;;4988498;28;20054;-56
2023/04/01 00:47:19;;;;;;;1.52;0.55;;;21.80;44.00;;;;;;4985730;28;20031;-54
2023/04/01 00:49:49;;;;;;;0.63;0.45;;;21.80;44.00;;;;;;4987965;28;20109;-57
2023/04/01 00:52:20;;;;;;;1.67;0.68;;;21.80;44.10;;;;;;4986019;28;20442;-52
2023/04/01 00:54:49;;;;;;;1.23;0.73;;;21.80;44.10;;;;;;4987373;28;20038;-56
2023/04/01 00:57:38;;;;;;;1.20;0.75;;;21.80;44.10;;;;;;4988465;28;20057;-57
2023/04/01 01:00:09;;;;;;;1.02;0.60;;;21.80;44.10;;;;;;4986381;28;20050;-51
2023/04/01 01:02:35;;;;;;;1.02;0.60;;;21.80;44.10;;;;;;4979876;28;20018;-55
2023/04/01 01:05:01;;;;;;;1.48;0.55;;;21.80;44.20;;;;;;4987399;28;20087;-56
2023/04/01 01:07:53;;;;;;;1.30;0.77;;;21.80;44.20;;;;;;4986405;28;20030;-56
2023/04/01 01:10:26;;;;;;;1.15;0.70;;;21.80;44.20;;;;;;4991708;28;20046;-55
2023/04/01 01:13:10;;;;;;;0.93;0.50;;;21.80;44.20;;;;;;4985617;28;20065;-52
2023/04/01 01:15:52;;;;;;;1.07;0.57;;;21.80;44.20;;;;;;4986354;28;20461;-55
2023/04/01 01:18:21;;;;;;;1.30;0.73;;;21.70;44.20;;;;;;4984938;28;20395;-55
2023/04/01 01:21:05;;;;;;;1.25;0.65;;;21.70;44.20;;;;;;4989339;28;20050;-54
2023/04/01 01:23:45;;;;;;;3.67;0.90;;;21.70;44.30;;;;;;4980171;28;20072;-54
2023/04/01 01:26:35;;;;;;;1.45;0.68;;;21.70;44.30;;;;;;4991439;28;20564;-55
2023/04/01 01:29:20;;;;;;;1.23;0.60;;;21.70;44.30;;;;;;4992656;28;20113;-54
2023/04/01 01:31:55;;;;;;;;;;;21.70;44.30;;;;;;4995466;28;20060;-52
2023/04/01 01:34:41;;;;;;;1.10;0.50;;;21.70;44.40;;;;;;4996372;28;19909;-57
2023/04/01 01:37:20;;;;;;;1.30;0.60;;;21.70;44.40;;;;;;4993131;28;20089;-57
2023/04/01 01:39:54;;;;;;;1.30;0.77;;;21.60;44.40;;;;;;4996415;28;20331;-53
2023/04/01 01:42:22;;;;;;;1.35;0.77;;;21.60;44.40;;;;;;4995137;28;20110;-56
2023/04/01 01:44:51;;;;;;;1.83;0.68;;;21.60;44.50;;;;;;4995536;28;20038;-53
2023/04/01 01:47:19;;;;;;;1.23;0.85;;;21.60;44.50;;;;;;4994125;28;20462;-56
2023/04/01 01:49:46;;;;;;;1.73;0.77;;;21.60;44.50;;;;;;4976947;28;20101;-52
2023/04/01 01:52:12;;;;;;;1.45;0.60;;;21.60;44.50;;;;;;4995934;28;20118;-55
2023/04/01 01:54:56;;;;;;;1.48;0.63;;;21.60;44.50;;;;;;4996114;28;20026;-53
2023/04/01 01:57:33;;;;;;;0.90;0.52;;;21.60;44.60;;;;;;4991455;28;20037;-53
2023/04/01 02:00:12;;;;;;;1.42;0.63;;;21.60;44.60;;;;;;4990814;28;20038;-54
2023/04/01 02:02:45;;;;;;;1.35;0.60;;;21.60;44.60;;;;;;4990612;28;20105;-52
2023/04/01 02:05:17;;;;;;;1.48;0.63;;;21.60;44.70;;;;;;4987408;28;20565;-55
2023/04/01 02:07:51;;;;;;;1.92;0.73;;;21.60;44.60;;;;;;4988338;28;21517;-55
2023/04/01 02:10:19;;;;;;;1.23;0.52;;;21.60;44.70;;;;;;4989439;28;20027;-56
2023/04/01 02:12:47;;;;;;;1.95;0.70;;;21.60;44.70;;;;;;4989378;28;20417;-54
2023/04/01 02:15:15;;;;;;;0.95;0.60;;;21.50;44.60;;;;;;4989387;28;20034;-53
2023/04/01 02:17:45;;;;;;;1.15;0.52;;;21.50;44.60;;;;;;4989678;28;20022;-52
2023/04/01 02:20:23;;;;;;;1.05;0.65;;;21.50;44.60;;;;;;4988471;28;20038;-51
2023/04/01 02:22:55;;;;;;;1.20;0.60;;;21.50;44.60;;;;;;4988790;28;20108;-54
2023/04/01 02:25:33;;;;;;;2.60;0.82;;;21.50;44.60;;;;;;4989413;28;20077;-53
2023/04/01 02:28:02;;;;;;;2.15;0.68;;;21.50;44.60;;;;;;4975860;28;20031;-56
2023/04/01 02:30:29;;;;;;;1.50;0.73;;;21.50;44.60;;;;;;4989162;28;20026;-57
2023/04/01 02:32:57;;;;;;;2.47;0.98;;;21.50;44.60;;;;;;4989098;28;20033;-53
2023/04/01 02:35:24;;;;;;;2.40;0.90;;;21.50;44.70;;;;;;4990201;28;20104;-53
2023/04/01 02:37:53;;;;;;;2.05;0.45;;;21.50;44.80;;;;;;4988703;28;20118;-54
2023/04/01 02:40:19;;;;;;;2.13;0.80;;;21.50;44.80;;;;;;4989570;28;20065;-53
2023/04/01 02:42:45;;;;;;;1.85;0.60;;;21.50;44.80;;;;;;4991218;28;20182;-54
2023/04/01 02:45:12;;;;;;;2.50;0.70;;;21.50;44.80;;;;;;4987723;28;20092;-54
2023/04/01 02:47:38;;;;;;;1.98;0.80;;;21.50;44.80;;;;;;4988742;28;20062;-55
2023/04/01 02:50:05;;;;;;;1.05;0.50;;;21.50;44.70;;;;;;4988585;28;20026;-52
2023/04/01 02:52:32;;;;;;;2.58;0.80;;;21.50;44.70;;;;;;4992886;28;20022;-52
2023/04/01 02:55:01;;;;;;;1.55;0.90;;;21.50;44.70;;;;;;4988854;28;20138;-57
2023/04/01 02:57:27;;;;;;;1.88;0.80;;;21.40;44.70;;;;;;4986549;28;20026;-52
2023/04/01 02:59:52;;;;;;;1.10;0.65;;;21.50;44.70;;;;;;4988691;28;20030;-52
2023/04/01 03:02:18;;;;;;;1.48;0.80;;;21.50;44.70;;;;;;4987921;28;20053;-55
2023/04/01 03:04:44;;;;;;;1.45;0.70;;;21.50;44.70;;;;;;4990344;28;20030;-56
2023/04/01 03:07:11;;;;;;;2.25;0.63;;;21.50;44.70;;;;;;4988147;28;20034;-55
2023/04/01 03:09:37;;;;;;;1.60;0.70;;;21.40;44.70;;;;;;4989342;28;20139;-55
2023/04/01 03:12:04;;;;;;;2.08;1.13;;;21.40;44.70;;;;;;4988887;28;20026;-55
2023/04/01 03:14:36;;;;;;;1.42;0.60;;;21.40;44.70;;;;;;4987130;28;20065;-56
2023/04/01 03:17:02;;;;;;;1.38;0.52;;;21.40;44.70;;;;;;4985738;28;20038;-52
2023/04/01 03:19:27;;;;;;;0.95;0.50;;;21.40;44.70;;;;;;4988959;28;20037;-57
2023/04/01 03:21:53;;;;;;;1.17;0.40;;;21.40;44.70;;;;;;4987858;28;20379;-54
2023/04/01 03:24:20;;;;;;;0.65;0.40;;;21.40;44.70;;;;;;4972818;28;20041;-55
2023/04/01 03:26:46;;;;;;;1.65;0.50;;;21.40;44.70;;;;;;4987367;28;20057;-56
2023/04/01 03:29:15;;;;;;;1.55;0.60;;;21.40;44.70;;;;;;4992042;28;20447;-52
2023/04/01 03:31:41;;;;;;;0.68;0.40;;;21.40;44.70;;;;;;4994424;28;20378;-55
2023/04/01 03:34:07;;;;;;;0.70;0.32;;;21.40;44.80;;;;;;4991062;28;20057;-55
2023/04/01 03:36:33;;;;;;;0.40;0.30;;;21.40;44.70;;;;;;4993053;28;20117;-56
2023/04/01 03:38:59;;;;;;;0.70;0.40;;;21.40;44.70;;;;;;4992939;28;20114;-54
2023/04/01 03:41:36;;;;;;;1.10;0.50;;;21.40;44.80;;;;;;4989933;28;20066;-55
2023/04/01 03:44:02;;;;;;;0.80;0.35;;;21.30;44.70;;;;;;4993248;28;20026;-51
2023/04/01 03:46:28;;;;;;;0.85;0.40;;;21.30;44.70;;;;;;4990938;28;20026;-51
2023/04/01 03:48:54;;;;;;;0.60;0.30;;;21.30;44.70;;;;;;4994234;28;20026;-54
2023/04/01 03:51:19;;;;;;;0.20;0.20;;;21.30;44.70;;;;;;4993760;28;20038;-53
2023/04/01 03:53:45;;;;;;;0.52;0.40;;;21.30;44.70;;;;;;4993147;28;20446;-55
2023/04/01 03:56:11;;;;;;;0.73;0.30;;;21.30;44.70;;;;;;4992749;28;20409;-55
2023/04/01 03:58:38;;;;;;;0.90;0.43;;;21.30;44.70;;;;;;4990483;28;20022;-54
2023/04/01 04:01:18;;;;;;;0.52;0.40;;;21.30;44.70;;;;;;4987255;28;20039;-56
2023/04/01 04:03:45;;;;;;;0.80;0.20;;;21.30;44.70;;;;;;5004170;28;20169;-54
2023/04/01 04:06:13;;;;;;;0.68;0.38;;;21.30;44.70;;;;;;4987721;28;20026;-56
2023/04/01 04:08:40;;;;;;;0.98;0.40;;;21.30;44.70;;;;;;4987347;28;20034;-55
2023/04/01 04:11:06;;;;;;;0.40;0.22;;;21.30;44.70;;;;;;4987545;28;20068;-56
2023/04/01 04:13:33;;;;;;;0.55;0.30;;;21.20;44.70;;;;;;4982874;28;20046;-55
2023/04/01 04:16:00;;;;;;;0.85;0.43;;;21.20;44.70;;;;;;4989436;28;20054;-58
2023/04/01 04:18:30;;;;;;;0.73;0.40;;;21.20;44.70;;;;;;4984144;28;20458;-55
2023/04/01 04:20:56;;;;;;;0.82;0.38;;;21.20;44.70;;;;;;4986999;28;20454;-52
2023/04/01 04:23:22;;;;;;;0.70;0.40;;;21.20;44.70;;;;;;4988933;28;20041;-53
2023/04/01 04:26:06;;;;;;;0.32;0.30;;;21.20;44.70;;;;;;4988317;28;20029;-52
2023/04/01 04:28:33;;;;;;;0.88;0.45;;;21.20;44.70;;;;;;4987485;28;20474;-51
2023/04/01 04:31:00;;;;;;;0.65;0.30;;;21.20;44.70;;;;;;4981002;28;20026;-55
2023/04/01 04:33:26;;;;;;;0.55;0.30;;;21.20;44.70;;;;;;4987433;28;20125;-57
2023/04/01 04:35:55;;;;;;;1.35;0.57;;;21.20;44.70;;;;;;4986550;28;20053;-52
2023/04/01 04:38:22;;;;;;;0.40;0.30;;;21.20;44.70;;;;;;4989172;28;20035;-56
2023/04/01 04:40:48;;;;;;;0.40;0.32;;;21.20;44.80;;;;;;4986990;28;20493;-54
2023/04/01 04:43:16;;;;;;;0.57;0.40;;;21.20;44.70;;;;;;4986098;28;20034;-53
2023/04/01 04:45:43;;;;;;;0.88;0.40;;;21.20;44.80;;;;;;4987710;28;20030;-55
2023/04/01 04:48:12;;;;;;;0.90;0.50;;;21.20;44.80;;;;;;4987925;28;20022;-56
2023/04/01 04:50:40;;;;;;;1.00;0.45;;;21.20;44.80;;;;;;4987871;28;20054;-54
2023/04/01 04:53:06;;;;;;;0.95;0.40;;;21.20;44.80;;;;;;4987603;28;20117;-54
2023/04/01 04:55:32;;;;;;;0.90;0.47;;;21.20;44.80;;;;;;4989270;28;20080;-54
2023/04/01 04:58:18;;;;;;;0.33;0.30;;;21.10;44.80;;;;;;4993643;28;20148;-52
2023/04/01 05:00:45;;;;;;;0.52;0.35;;;21.10;44.80;;;;;;4993850;28;20041;-53
2023/04/01 05:03:18;;;;;;;0.52;0.40;;;21.10;44.80;;;;;;4987612;28;20369;-50
2023/04/01 05:05:52;;;;;;;0.85;0.50;;;21.10;44.80;;;;;;4991155;28;20034;-55
2023/04/01 05:08:20;;;;;;;0.47;0.32;;;21.10;44.80;;;;;;4986526;28;20046;-55
2023/04/01 05:10:46;;;;;;;0.50;0.30;;;21.10;44.80;;;;;;4992802;28;20116;-55
2023/04/01 05:13:12;;;;;;;0.63;0.50;;;21.10;44.90;;;;;;4989593;28;20058;-54
2023/04/01 05:15:40;;;;;;;0.35;0.35;;;21.10;45.50;;;;;;4990126;28;20041;-55
2023/04/01 05:18:06;;;;;;;0.45;0.40;;;21.10;44.90;;;;;;4989997;28;20022;-55
2023/04/01 05:20:32;;;;;;;0.30;0.30;;;21.10;44.90;;;;;;4991059;28;20050;-53
2023/04/01 05:22:59;;;;;;;0.60;0.40;;;21.10;44.90;;;;;;4990040;28;20089;-57
2023/04/01 05:25:26;;;;;;;0.57;0.40;;;21.10;45.50;;;;;;4989903;28;20688;-55
2023/04/01 05:27:52;;;;;;;0.40;0.40;;;21.10;44.90;;;;;;4993487;28;20018;-51
2023/04/01 05:30:18;;;;;;;0.40;0.38;;;21.10;45.00;;;;;;4995769;28;20113;-52
2023/04/01 05:32:58;;;;;;;0.40;0.30;;;21.10;45.00;;;;;;4993188;28;20161;-55
2023/04/01 05:35:24;;;;;;;0.50;0.40;;;21.10;45.00;;;;;;4996866;28;20108;-55
2023/04/01 05:37:50;;;;;;;0.43;0.30;;;21.00;45.00;;;;;;4987698;28;20046;-55
2023/04/01 05:40:16;;;;;;;0.30;0.30;;;21.00;45.00;;;;;;4993839;28;20061;-55
2023/04/01 05:42:42;;;;;;;0.45;0.40;;;21.00;45.00;;;;;;4995661;28;20033;-53
2023/04/01 05:45:08;;;;;;;0.30;0.30;;;21.00;45.00;;;;;;4996453;28;20027;-55
2023/04/01 05:47:54;;;;;;;0.57;0.40;;;21.00;45.10;;;;;;4994123;28;20041;-55
2023/04/01 05:50:20;;;;;;;0.22;0.22;;;21.00;45.10;;;;;;4994996;28;20362;-56
2023/04/01 05:52:46;;;;;;;0.43;0.28;;;21.00;45.10;;;;;;4995589;28;20030;-56
2023/04/01 05:55:12;;;;;;;0.52;0.30;;;21.00;45.10;;;;;;4995217;28;20014;-54
2023/04/01 05:57:39;;;;;;;0.93;0.38;;;21.00;45.10;;;;;;4990892;28;20370;-55
2023/04/01 06:00:05;;;;;;;0.20;0.20;;;21.00;45.20;;;;;;4992408;28;20041;-54
2023/04/01 06:02:38;;;;;;;0.47;0.32;;;21.00;45.20;;;;;;4988840;28;20038;-53
2023/04/01 06:05:17;;;;;;;0.30;0.30;;;21.00;45.20;;;;;;4988629;28;20073;-55
2023/04/01 06:07:43;;;;;;;0.40;0.32;;;21.00;45.20;;;;;;4986667;28;20049;-56
2023/04/01 06:10:17;;;;;;;0.70;0.50;;;21.00;45.20;;;;;;4990425;28;20446;-56
2023/04/01 06:13:00;;;;;;;;;;;21.00;45.20;;;;;;4990368;28;20030;-58
2023/04/01 06:15:39;;;;;;;0.57;0.50;;;21.00;45.30;;;;;;4988896;28;20308;-54
2023/04/01 06:18:11;;;;;;;0.60;0.50;;;21.00;45.20;;;;;;4988161;28;20069;-56
2023/04/01 06:20:55;;;;;;;0.90;0.70;;;21.00;45.30;;;;;;4990455;28;20042;-56
2023/04/01 06:23:37;;;;;;;1.13;0.88;;;21.00;45.30;;;;;;4989624;28;20117;-55
2023/04/01 06:26:18;;;;;;;1.38;0.88;;;21.00;45.40;;;;;;4987683;28;20033;-57
2023/04/01 06:29:03;;;;;;;1.15;0.90;;;21.00;45.30;;;;;;4990037;28;20046;-57
2023/04/01 06:31:48;;;;;;;;;;;21.00;45.40;;;;;;4988353;28;20084;-53
2023/04/01 06:34:38;;;;;;;1.45;0.95;;;21.00;45.40;;;;;;5000804;28;19920;-52
2023/04/01 06:37:13;;;;;;;1.70;1.10;;;20.90;45.40;;;;;;4986845;28;20109;-54
2023/04/01 06:40:25;;;;;;;1.48;1.00;;;20.90;45.40;;;;;;4987609;28;20085;-54
2023/04/01 06:43:01;;;;;;;3.35;1.40;;;21.00;45.50;;;;;;4986866;28;20525;-55
2023/04/01 06:46:08;;;;;;;2.20;1.50;;;21.00;45.60;;;;;;4949397;28;20533;-56
2023/04/01 06:49:03;;;;;;;2.08;1.30;;;21.00;45.70;;;;;;4988894;28;20050;-56
2023/04/01 06:52:23;;;;;;;2.72;1.60;;;21.00;45.70;;;;;;4986219;28;20358;-54
2023/04/01 06:55:25;;;;;;;3.17;1.52;;;21.00;45.70;;;;;;4986946;28;20041;-52
2023/04/01 06:58:46;;;;;;;1.85;1.30;;;21.00;45.70;;;;;;4988523;28;20085;-53
2023/04/01 07:01:26;;;;;;;3.63;1.10;;;21.00;45.70;;;;;;4988513;28;20057;-56
2023/04/01 07:04:46;;;;;;;2.30;1.08;;;21.00;45.70;;;;;;4988903;28;20027;-55
2023/04/01 07:07:16;;;;;;;2.20;0.93;;;21.00;45.70;;;;;;4894580;29;20043;-55
2023/04/01 07:09:55;;;;;;;1.70;1.00;;;21.10;45.70;;;;;;4974155;28;20061;-57
2023/04/01 07:12:35;;;;;;;2.00;0.93;;;21.10;45.70;;;;;;4989500;28;20046;-57
2023/04/01 07:15:39;;;;;;;1.20;0.82;;;21.10;45.70;;;;;;4985695;28;20065;-51
2023/04/01 07:18:18;;;;;;;1.20;0.80;;;21.20;45.70;;;;;;4985557;28;20054;-56
2023/04/01 07:20:46;;;;;;;0.65;0.60;;;21.20;45.70;;;;;;4971102;28;20031;-53
2023/04/01 07:23:26;;;;;;;1.23;0.70;;;21.20;45.70;;;;;;4989145;28;20438;-56
2023/04/01 07:26:23;;;;;;;1.48;0.68;;;21.20;45.60;;;;;;4972839;28;20145;-54
2023/04/01 07:29:13;;;;;;;1.30;0.65;;;21.30;45.70;;;;;;4988520;28;20054;-55
2023/04/01 07:32:01;;;;;;;2.65;0.90;;;21.30;45.60;;;;;;4985813;28;20084;-55
2023/04/01 07:34:42;;;;;;;2.08;0.90;;;21.30;45.60;;;;;;4988647;28;20435;-53
2023/04/01 07:37:23;;;;;;;2.60;1.08;;;21.40;45.70;;;;;;4987091;28;20043;-53
2023/04/01 07:40:14;;;;;;;2.03;0.90;;;21.40;45.70;;;;;;4987947;28;20576;-56
2023/04/01 07:43:14;;;;;;;5.78;1.20;;;21.40;45.70;;;;;;4987848;28;20730;-53
2023/04/01 07:46:04;;;;;;;4.43;1.42;;;21.40;45.90;;;;;;4987858;28;20105;-56
2023/04/01 07:48:38;;;;;;;3.53;1.10;;;21.50;46.40;;;;;;4988847;28;20057;-52
2023/04/01 07:51:20;;;;;;;3.35;1.10;;;21.50;46.40;;;;;;4988710;28;20023;-50
2023/04/01 07:54:04;;;;;;;3.85;1.25;;;21.60;46.40;;;;;;4986573;28;20476;-58
2023/04/01 07:56:36;;;;;;;3.40;1.30;;;21.60;46.30;;;;;;4990557;28;20026;-52
2023/04/01 07:59:05;;;;;;;4.13;1.17;;;21.60;46.30;;;;;;4989546;28;20030;-54
2023/04/01 08:01:59;;;;;;;2.13;1.00;;;21.60;46.20;;;;;;4989074;28;20540;-56
2023/04/01 08:04:46;;;;;;;4.25;1.27;;;21.70;46.20;;;;;;4984252;28;20038;-55
2023/04/01 08:07:23;;;;;;;4.35;1.30;;;21.70;46.10;;;;;;4985299;28;20447;-55
2023/04/01 08:10:34;;;;;;;2.78;1.10;;;21.70;46.00;;;;;;4957491;28;20045;-54
2023/04/01 08:13:29;;;;;;;1.98;0.98;;;21.80;46.00;;;;;;4988593;28;20053;-55
2023/04/01 08:16:55;;;;;;;1.42;0.70;;;21.80;45.90;;;;;;4988522;28;20049;-53
2023/04/01 08:19:51;;;;;;;1.85;0.80;;;21.80;45.90;;;;;;4983446;28;20038;-54
2023/04/01 08:22:37;;;;;;;4.07;1.30;;;21.80;45.90;;;;;;4987456;28;20397;-51
2023/04/01 08:25:18;;;;;;;2.85;0.80;;;21.80;46.00;;;;;;4987172;28;20045;-53
2023/04/01 08:27:48;;;;;;;3.08;1.13;;;21.80;46.00;;;;;;4992148;28;20438;-55
2023/04/01 08:30:24;;;;;;;1.90;0.88;;;21.80;46.00;;;;;;4991814;28;20091;-53
2023/04/01 08:33:05;;;;;;;1.95;0.80;;;21.80;46.00;;;;;;4989204;28;20070;-56
2023/04/01 08:35:46;;;;;;;1.50;0.60;;;21.80;46.00;;;;;;4984878;28;20045;-54
2023/04/01 08:38:20;;;;;;;2.03;0.80;;;21.80;46.10;;;;;;4985994;28;20397;-57
2023/04/01 08:40:54;;;;;;;;;;;21.80;46.10;;;;;;4987089;28;20125;-55
2023/04/01 08:43:48;;;;;;;1.52;0.80;;;21.90;46.10;;;;;;4986201;28;19914;-54
2023/04/01 08:46:32;;;;;;;2.08;0.73;;;21.80;46.10;;;;;;4960619;28;20035;-52
2023/04/01 08:49:27;;;;;;;1.67;0.60;;;21.80;46.10;;;;;;4986872;28;20026;-54
2023/04/01 08:52:08;;;;;;;1.83;0.70;;;21.80;46.10;;;;;;4991800;28;20465;-49
2023/04/01 08:54:58;;;;;;;1.27;0.75;;;21.80;46.20;;;;;;4990322;28;20034;-53
2023/04/01 08:58:02;;;;;;;1.17;0.55;;;21.80;47.00;;;;;;4985029;28;20041;-53
2023/04/01 09:01:25;;;;;;;2.10;0.80;;;21.80;46.40;;;;;;4972809;28;20485;-52
2023/04/01 09:04:03;;;;;;;1.20;0.57;;;21.80;46.50;;;;;;4986011;28;20484;-49
2023/04/01 09:06:49;;;;;;;0.80;0.45;;;21.80;46.40;;;;;;4986805;28;20117;-52
2023/04/01 09:09:36;;;;;;;1.42;0.63;;;21.90;46.40;;;;;;4987124;28;20556;-50
2023/04/01 09:12:11;;;;;;;1.05;0.50;;;21.80;46.30;;;;;;4987805;28;20477;-54
2023/04/01 09:15:13;;;;;;;1.27;0.60;;;21.80;46.30;;;;;;4987157;28;20049;-52
2023/04/01 09:17:52;;;;;;;0.68;0.50;;;21.80;46.30;;;;;;4963434;28;20038;-49
2023/04/01 09:20:40;;;;;;;0.85;0.50;;;21.90;46.30;;;;;;4986530;28;20042;-52
2023/04/01 09:23:24;;;;;;;0.75;0.50;;;21.90;46.30;;;;;;4987549;28;20042;-53
2023/04/01 09:26:27;;;;;;;3.50;0.45;;;21.90;46.30;;;;;;4989301;28;20488;-50
2023/04/01 09:29:29;;;;;;;1.20;0.40;;;21.90;46.40;;;;;;4987021;28;20339;-48
2023/04/01 09:32:19;;;;;;;2.20;0.57;;;21.90;46.70;;;;;;4990101;28;20027;-53
2023/04/01 09:35:28;;;;;;;1.02;0.40;;;21.90;46.70;;;;;;4991181;28;20073;-50
2023/04/01 09:38:11;;;;;;;1.48;0.50;;;21.90;47.00;;;;;;4985718;28;20339;-54
2023/04/01 09:40:57;;;;;;;0.95;0.47;;;21.90;47.10;;;;;;4987333;28;20077;-53
2023/04/01 09:44:01;;;;;;;1.25;0.50;;;21.90;47.10;;;;;;5001264;28;20442;-54
2023/04/01 09:46:27;;;;;;;0.82;0.40;;;22.00;47.20;;;;;;4989883;28;20120;-53
2023/04/01 09:49:12;;;;;;;0.65;0.30;;;22.00;47.20;;;;;;4993022;28;20068;-50
2023/04/01 09:52:08;;;;;;;1.83;0.63;;;22.00;47.20;;;;;;4995061;28;20031;-49
2023/04/01 09:55:00;;;;;;;0.70;0.30;;;22.00;47.20;;;;;;4994626;28;20517;-49
2023/04/01 09:58:04;;;;;;;1.42;0.40;;;22.00;47.10;;;;;;4994337;28;20030;-48
2023/04/01 10:01:11;;;;;;;0.65;0.40;;;22.00;47.10;;;;;;4994720;28;20074;-54
2023/04/01 10:04:17;;;;;;;0.88;0.40;;;22.00;47.10;;;;;;4993651;28;20034;-52
2023/04/01 10:07:02;;;;;;;0.30;0.20;;;22.00;47.00;;;;;;4991179;28;20027;-54
2023/04/01 10:09:46;;;;;;;0.50;0.30;;;22.00;46.90;;;;;;4992060;28;20358;-49
2023/04/01 10:12:24;;;;;;;0.43;0.30;;;22.00;46.80;;;;;;4993659;28;20148;-52
2023/04/01 10:15:12;;;;;;;1.00;0.50;;;22.00;46.80;;;;;;4992915;28;20069;-56
2023/04/01 10:18:10;;;;;;;1.35;0.40;;;22.00;46.70;;;;;;4990172;28;20026;-56
2023/04/01 10:20:58;;;;;;;0.60;0.40;;;22.00;46.50;;;;;;4993493;28;20034;-54
2023/04/01 10:23:44;;;;;;;1.65;0.47;;;22.00;46.80;;;;;;4993945;28;20034;-53
2023/04/01 10:26:35;;;;;;;1.25;0.40;;;22.00;46.80;;;;;;4994221;28;20026;-52
2023/04/01 10:30:11;;;;;;;0.80;0.52;;;22.00;46.60;;;;;;4994611;28;20080;-52
2023/04/01 10:33:15;;;;;;;1.60;0.50;;;22.00;46.50;;;;;;4992904;28;20030;-50
2023/04/01 10:36:17;;;;;;;0.95;0.40;;;22.00;46.40;;;;;;4994921;28;20482;-51
2023/04/01 10:39:00;;;;;;;2.55;0.43;;;22.00;46.30;;;;;;4993962;28;20030;-52
2023/04/01 10:41:38;;;;;;;1.83;0.52;;;22.00;46.30;;;;;;4994204;28;20386;-48
2023/04/01 10:44:41;;;;;;;0.75;0.40;;;22.00;46.40;;;;;;4994885;28;20073;-49
2023/04/01 10:47:35;;;;;;;0.73;0.50;;;22.00;46.50;;;;;;4992235;28;20066;-50
2023/04/01 10:50:10;;;;;;;;;;;22.00;46.50;;;;;;4987417;28;20058;-51
2023/04/01 10:52:45;;;;;;;;;;;22.00;46.60;;;;;;4993519;28;19913;-53
2023/04/01 10:55:44;;;;;;;0.88;0.40;;;22.10;46.70;;;;;;4991148;28;20352;-47
2023/04/01 10:58:55;;;;;;;1.48;0.57;;;22.00;46.60;;;;;;4963563;28;20045;-47
2023/04/01 11:02:11;;;;;;;0.88;0.50;;;22.00;46.70;;;;;;4989183;28;20092;-54
2023/04/01 11:04:59;;;;;;;;;;;22.10;46.80;;;;;;4989937;28;20049;-50
2023/04/01 11:08:12;;;;;;;0.95;0.45;;;22.00;46.80;;;;;;4985280;28;19909;-49
2023/04/01 11:11:22;;;;;;;0.88;0.40;;;22.00;46.60;;;;;;4988794;28;20037;-50
2023/04/01 11:13:54;;;;;;;1.63;0.45;;;22.10;46.60;;;;;;4989168;28;20073;-54
2023/04/01 11:17:02;;;;;;;0.45;0.40;;;22.10;46.60;;;;;;4990461;28;20038;-56
2023/04/01 11:19:43;;;;;;;1.10;0.40;;;22.00;46.70;;;;;;4973895;28;20057;-56
2023/04/01 11:22:50;;;;;;;1.08;0.57;;;22.10;46.70;;;;;;4985899;28;20377;-55
2023/04/01 11:25:19;;;;;;;1.13;0.40;;;22.10;46.70;;;;;;4972137;28;20374;-48
2023/04/01 11:28:28;;;;;;;4.20;0.65;;;22.10;46.80;;;;;;4988598;28;20402;-45
2023/04/01 11:31:34;;;;;;;2.55;0.40;;;22.10;46.70;;;;;;4991333;28;20026;-50
2023/04/01 11:34:25;;;;;;;1.17;0.47;;;22.10;46.60;;;;;;4986149;28;20027;-50
2023/04/01 11:36:59;;;;;;;0.68;0.40;;;22.10;46.50;;;;;;4987331;28;20092;-49
2023/04/01 11:39:41;;;;;;;0.60;0.32;;;22.10;46.40;;;;;;4988615;28;20050;-49
2023/04/01 11:42:45;;;;;;;1.85;0.50;;;22.10;46.30;;;;;;4987355;28;20042;-45
2023/04/01 11:45:55;;;;;;;1.30;0.40;;;22.10;46.20;;;;;;4990892;28;20124;-48
2023/04/01 11:48:38;;;;;;;0.65;0.38;;;22.00;46.20;;;;;;4990677;28;20128;-48
2023/04/01 11:51:07;;;;;;;1.15;0.30;;;22.10;47.00;;;;;;4988375;28;20030;-48
2023/04/01 11:53:58;;;;;;;0.90;0.40;;;22.00;46.40;;;;;;4985082;28;20030;-54
2023/04/01 11:57:04;;;;;;;0.45;0.30;;;22.10;46.50;;;;;;4987240;28;20162;-47
2023/04/01 11:59:52;;;;;;;0.60;0.30;;;22.10;46.40;;;;;;4939234;28;20052;-50
2023/04/01 12:02:52;;;;;;;2.13;0.40;;;22.00;46.40;;;;;;4989905;28;20050;-51
2023/04/01 12:05:28;;;;;;;0.35;0.28;;;22.00;46.30;;;;;;4987064;28;20077;-50
2023/04/01 12:07:54;;;;;;;0.30;0.30;;;22.00;46.30;;;;;;4984959;28;20026;-53
2023/04/01 12:10:50;;;;;;;3.05;0.28;;;22.00;46.80;;;;;;4988506;28;20393;-50
2023/04/01 12:13:34;;;;;;;1.45;0.40;;;22.00;46.20;;;;;;4989217;28;20054;-51
2023/04/01 12:16:09;;;;;;;1.23;0.20;;;22.00;46.20;;;;;;4987760;28;20026;-53
2023/04/01 12:18:41;;;;;;;0.45;0.30;;;22.00;46.20;;;;;;4986708;28;20070;-52
2023/04/01 12:22:04;;;;;;;2.85;0.22;;;22.00;46.30;;;;;;4983550;28;20433;-54
2023/04/01 12:24:43;;;;;;;1.35;0.38;;;22.00;46.20;;;;;;4892006;29;20043;-52
2023/04/01 12:27:26;;;;;;;2.13;0.40;;;22.00;46.20;;;;;;4895635;29;20036;-49
2023/04/01 12:30:24;;;;;;;1.35;0.60;;;22.00;46.80;;;;;;4957505;28;20117;-54
2023/04/01 12:33:10;;;;;;;1.17;0.30;;;22.00;46.30;;;;;;4988339;28;20034;-54
2023/04/01 12:35:42;;;;;;;1.83;0.30;;;22.00;46.60;;;;;;4987738;28;20454;-54
2023/04/01 12:38:10;;;;;;;2.47;0.43;;;22.10;47.30;;;;;;4985210;28;20354;-49
2023/04/01 12:40:40;;;;;;;1.70;0.50;;;22.10;47.50;;;;;;4989059;28;20042;-55
2023/04/01 12:44:13;;;;;;;2.13;0.60;;;22.10;46.90;;;;;;5054743;28;20935;-51
2023/04/01 12:47:06;;;;;;;1.15;0.40;;;22.10;47.50;;;;;;5058396;28;20037;-50
2023/04/01 12:49:47;;;;;;;0.20;0.20;;;22.10;47.50;;;;;;5055335;28;20071;-54
2023/04/01 12:52:42;;;;;;;0.98;0.30;;;22.20;47.70;;;;;;5058942;28;20159;-50
2023/04/01 12:55:18;;;;;;;;;;;22.20;47.80;;;;;;5043685;28;20348;-56
2023/04/01 12:57:47;;;;;;;1.83;0.20;;;22.20;47.80;;;;;;5055882;28;19951;-50
2023/04/01 13:00:47;;;;;;;0.55;0.30;;;22.20;47.80;;;;;;5059354;28;20025;-53
2023/04/01 13:03:43;;;;;;;1.20;0.50;;;22.20;47.80;;;;;;5052575;28;20583;-52
2023/04/01 13:06:18;;;;;;;1.08;0.30;;;22.20;47.70;;;;;;5057824;28;20058;-57
2023/04/01 13:08:59;;;;;;;2.58;0.30;;;22.20;47.70;;;;;;5064955;28;20094;-58
2023/04/01 13:11:31;;;;;;;1.65;0.50;;;22.20;47.90;;;;;;5052636;28;20029;-53
2023/04/01 13:14:27;;;;;;;1.40;0.25;;;22.30;48.10;;;;;;5054472;28;20033;-52
2023/04/01 13:16:58;;;;;;;1.75;0.40;;;22.20;48.20;;;;;;5068360;28;20456;-54
2023/04/01 13:19:51;;;;;;;1.33;0.40;;;22.30;48.30;;;;;;5067231;28;20013;-51
2023/04/01 13:22:30;;;;;;;2.58;0.50;;;22.30;48.30;;;;;;5055150;28;20123;-55
2023/04/01 13:25:26;;;;;;;1.40;0.30;;;22.30;48.30;;;;;;5057275;28;20163;-56
2023/04/01 13:28:02;;;;;;;1.13;0.30;;;22.30;48.20;;;;;;5050311;28;20041;-54
2023/04/01 13:30:32;;;;;;;0.75;0.30;;;22.40;48.10;;;;;;5052209;28;20060;-49
2023/04/01 13:33:27;;;;;;;1.75;0.38;;;22.30;47.90;;;;;;5052058;28;20119;-54
2023/04/01 13:36:02;;;;;;;0.90;0.40;;;22.40;47.80;;;;;;5053891;28;20116;-53
2023/04/01 13:38:30;;;;;;;0.40;0.20;;;22.40;47.60;;;;;;5052297;28;20033;-55
2023/04/01 13:41:26;;;;;;;0.30;0.20;;;22.40;47.60;;;;;;5068419;28;20449;-52
2023/04/01 13:44:31;;;;;;;1.13;0.35;;;22.40;47.40;;;;;;5059661;28;20053;-53
2023/04/01 13:47:18;;;;;;;1.15;0.40;;;22.40;47.20;;;;;;5056329;28;20116;-53
2023/04/01 13:50:21;;;;;;;0.75;0.30;;;22.40;47.00;;;;;;5057424;28;20032;-53
2023/04/01 13:53:26;;;;;;;1.02;0.17;;;22.40;47.00;;;;;;5060606;28;20120;-54